sensor_id;sensor_type;location;lat;lon;timestamp;pressure;altitude;pressure_sealevel;temperature;humidity
55038;BME280;40937;53.594;10.034;2022-10-18T00:02:28;78645.97;;;-147.20;87.08
55038;BME280;40937;53.594;10.034;2022-10-18T00:05:48;78650.00;;;-147.20;87.29
55038;BME280;40937;53.594;10.034;2022-10-18T00:08:32;78652.00;;;-147.20;87.45
55038;BME280;40937;53.594;10.034;2022-10-18T00:11:44;78654.03;;;-147.20;87.38
55038;BME280;40937;53.594;10.034;2022-10-18T00:14:37;78652.00;;;-147.20;87.28
55038;BME280;40937;53.594;10.034;2022-10-18T00:17:35;78652.00;;;-147.20;86.89
55038;BME280;40937;53.594;10.034;2022-10-18T00:20:25;78650.00;;;-147.20;87.00
55038;BME280;40937;53.594;10.034;2022-10-18T00:23:26;78662.09;;;-147.20;87.20
55038;BME280;40937;53.594;10.034;2022-10-18T00:26:20;78670.19;;;-147.20;87.35
55038;BME280;40937;53.594;10.034;2022-10-18T00:29:52;78672.22;;;-147.20;87.34
55038;BME280;40937;53.594;10.034;2022-10-18T00:32:49;78678.25;;;-147.20;87.53
55038;BME280;40937;53.594;10.034;2022-10-18T00:35:43;78674.22;;;-147.20;87.57
55038;BME280;40937;53.594;10.034;2022-10-18T00:38:29;78680.28;;;-147.20;87.63
55038;BME280;40937;53.594;10.034;2022-10-18T00:41:43;78682.31;;;-147.20;87.61
55038;BME280;40937;53.594;10.034;2022-10-18T00:45:13;78682.31;;;-147.20;87.59
55038;BME280;40937;53.594;10.034;2022-10-18T00:51:27;78696.44;;;-147.20;88.09
55038;BME280;40937;53.594;10.034;2022-10-18T00:54:20;78692.41;;;-147.20;87.85
55038;BME280;40937;53.594;10.034;2022-10-18T00:57:12;78694.41;;;-147.20;87.85
55038;BME280;40937;53.594;10.034;2022-10-18T01:00:13;78694.41;;;-147.20;88.23
55038;BME280;40937;53.594;10.034;2022-10-18T01:02:48;78696.44;;;-147.20;88.02
55038;BME280;40937;53.594;10.034;2022-10-18T01:05:46;78694.41;;;-147.20;87.96
55038;BME280;40937;53.594;10.034;2022-10-18T01:08:38;78690.38;;;-147.20;87.84
55038;BME280;40937;53.594;10.034;2022-10-18T01:14:24;78694.41;;;-147.20;87.85
55038;BME280;40937;53.594;10.034;2022-10-18T01:17:15;78692.41;;;-147.20;88.11
55038;BME280;40937;53.594;10.034;2022-10-18T01:23:06;78690.38;;;-147.20;87.44
55038;BME280;40937;53.594;10.034;2022-10-18T01:25:59;78696.44;;;-147.20;87.30
55038;BME280;40937;53.594;10.034;2022-10-18T01:28:50;78704.53;;;-147.20;87.30
55038;BME280;40937;53.594;10.034;2022-10-18T01:31:49;78710.56;;;-147.20;87.27
55038;BME280;40937;53.594;10.034;2022-10-18T01:34:38;78718.66;;;-147.20;87.59
55038;BME280;40937;53.594;10.034;2022-10-18T01:40:28;78712.59;;;-147.20;87.38
55038;BME280;40937;53.594;10.034;2022-10-18T01:43:31;78718.66;;;-147.20;87.29
55038;BME280;40937;53.594;10.034;2022-10-18T01:46:19;78726.72;;;-147.20;87.51
55038;BME280;40937;53.594;10.034;2022-10-18T01:49:13;78734.81;;;-147.20;87.74
55038;BME280;40937;53.594;10.034;2022-10-18T01:52:14;78738.84;;;-147.20;87.50
55038;BME280;40937;53.594;10.034;2022-10-18T01:55:07;78736.84;;;-147.20;87.31
55038;BME280;40937;53.594;10.034;2022-10-18T01:58:05;78738.84;;;-147.20;87.53
55038;BME280;40937;53.594;10.034;2022-10-18T02:01:26;78740.88;;;-147.20;87.58
55038;BME280;40937;53.594;10.034;2022-10-18T02:04:58;78744.91;;;-147.20;87.39
55038;BME280;40937;53.594;10.034;2022-10-18T02:07:18;78752.97;;;-147.20;87.47
55038;BME280;40937;53.594;10.034;2022-10-18T02:10:09;78757.03;;;-147.20;87.61
55038;BME280;40937;53.594;10.034;2022-10-18T02:12:51;78759.03;;;-147.20;87.83
55038;BME280;40937;53.594;10.034;2022-10-18T02:15:31;78761.06;;;-147.20;87.90
55038;BME280;40937;53.594;10.034;2022-10-18T02:18:00;78755.00;;;-147.20;87.92
55038;BME280;40937;53.594;10.034;2022-10-18T02:20:29;78761.06;;;-147.20;88.11
55038;BME280;40937;53.594;10.034;2022-10-18T02:22:57;78757.03;;;-147.20;88.18
55038;BME280;40937;53.594;10.034;2022-10-18T02:25:28;78757.03;;;-147.20;87.96
55038;BME280;40937;53.594;10.034;2022-10-18T02:27:55;78752.97;;;-147.20;87.58
55038;BME280;40937;53.594;10.034;2022-10-18T02:30:25;78755.00;;;-147.20;87.87
55038;BME280;40937;53.594;10.034;2022-10-18T02:32:56;78757.03;;;-147.20;88.08
55038;BME280;40937;53.594;10.034;2022-10-18T02:35:28;78755.00;;;-147.20;88.02
55038;BME280;40937;53.594;10.034;2022-10-18T02:37:56;78757.03;;;-147.20;87.94
55038;BME280;40937;53.594;10.034;2022-10-18T02:40:24;78759.03;;;-147.20;87.96
55038;BME280;40937;53.594;10.034;2022-10-18T02:42:54;78759.03;;;-147.20;88.10
55038;BME280;40937;53.594;10.034;2022-10-18T02:45:22;78757.03;;;-147.20;88.11
55038;BME280;40937;53.594;10.034;2022-10-18T02:47:49;78757.03;;;-147.20;87.79
55038;BME280;40937;53.594;10.034;2022-10-18T02:50:16;78761.06;;;-147.20;87.35
55038;BME280;40937;53.594;10.034;2022-10-18T02:52:44;78765.09;;;-147.20;87.58
55038;BME280;40937;53.594;10.034;2022-10-18T02:55:11;78769.13;;;-147.20;87.74
55038;BME280;40937;53.594;10.034;2022-10-18T02:57:37;78777.22;;;-147.20;88.11
55038;BME280;40937;53.594;10.034;2022-10-18T03:00:05;78769.13;;;-147.20;88.28
55038;BME280;40937;53.594;10.034;2022-10-18T03:02:32;78769.13;;;-147.20;88.16
55038;BME280;40937;53.594;10.034;2022-10-18T03:04:58;78771.16;;;-147.20;88.26
55038;BME280;40937;53.594;10.034;2022-10-18T03:07:25;78767.13;;;-147.20;88.59
55038;BME280;40937;53.594;10.034;2022-10-18T03:09:53;78769.13;;;-147.20;88.42
55038;BME280;40937;53.594;10.034;2022-10-18T03:12:20;78769.13;;;-147.20;88.62
55038;BME280;40937;53.594;10.034;2022-10-18T03:14:46;78765.09;;;-147.20;88.46
55038;BME280;40937;53.594;10.034;2022-10-18T03:17:13;78767.13;;;-147.20;88.69
55038;BME280;40937;53.594;10.034;2022-10-18T03:19:39;78767.13;;;-147.20;88.59
55038;BME280;40937;53.594;10.034;2022-10-18T03:22:06;78765.09;;;-147.20;88.86
55038;BME280;40937;53.594;10.034;2022-10-18T03:24:33;78767.13;;;-147.20;89.00
55038;BME280;40937;53.594;10.034;2022-10-18T03:27:00;78777.22;;;-147.20;89.11
55038;BME280;40937;53.594;10.034;2022-10-18T03:29:28;78769.13;;;-147.20;89.26
55038;BME280;40937;53.594;10.034;2022-10-18T03:31:54;78767.13;;;-147.20;89.48
55038;BME280;40937;53.594;10.034;2022-10-18T03:34:21;78763.09;;;-147.20;89.37
55038;BME280;40937;53.594;10.034;2022-10-18T03:36:47;78759.03;;;-147.20;89.22
55038;BME280;40937;53.594;10.034;2022-10-18T03:39:14;78755.00;;;-147.20;88.93
55038;BME280;40937;53.594;10.034;2022-10-18T03:41:40;78748.94;;;-147.20;88.83
55038;BME280;40937;53.594;10.034;2022-10-18T03:44:09;78755.00;;;-147.20;88.88
55038;BME280;40937;53.594;10.034;2022-10-18T03:46:35;78744.91;;;-147.20;88.62
55038;BME280;40937;53.594;10.034;2022-10-18T03:49:02;78752.97;;;-147.20;88.80
55038;BME280;40937;53.594;10.034;2022-10-18T03:51:28;78750.97;;;-147.20;88.78
55038;BME280;40937;53.594;10.034;2022-10-18T03:53:55;78757.03;;;-147.20;88.61
55038;BME280;40937;53.594;10.034;2022-10-18T03:56:22;78755.00;;;-147.20;88.58
55038;BME280;40937;53.594;10.034;2022-10-18T03:58:48;78752.97;;;-147.20;88.59
55038;BME280;40937;53.594;10.034;2022-10-18T04:01:16;78755.00;;;-147.20;88.61
55038;BME280;40937;53.594;10.034;2022-10-18T04:03:43;78755.00;;;-147.20;88.65
55038;BME280;40937;53.594;10.034;2022-10-18T04:06:10;78755.00;;;-147.20;88.38
55038;BME280;40937;53.594;10.034;2022-10-18T04:08:37;78759.03;;;-147.20;88.28
55038;BME280;40937;53.594;10.034;2022-10-18T04:11:05;78763.09;;;-147.20;88.46
55038;BME280;40937;53.594;10.034;2022-10-18T04:13:34;78763.09;;;-147.20;88.66
55038;BME280;40937;53.594;10.034;2022-10-18T04:16:01;78763.09;;;-147.20;88.35
55038;BME280;40937;53.594;10.034;2022-10-18T04:18:29;78769.13;;;-147.20;88.43
55038;BME280;40937;53.594;10.034;2022-10-18T04:20:56;78765.09;;;-147.20;88.48
55038;BME280;40937;53.594;10.034;2022-10-18T04:23:23;78773.19;;;-147.20;88.39
55038;BME280;40937;53.594;10.034;2022-10-18T04:25:49;78773.19;;;-147.20;88.38
55038;BME280;40937;53.594;10.034;2022-10-18T04:28:16;78771.16;;;-147.20;88.26
55038;BME280;40937;53.594;10.034;2022-10-18T04:30:43;78773.19;;;-147.20;88.23
55038;BME280;40937;53.594;10.034;2022-10-18T04:33:09;78775.19;;;-147.20;88.16
55038;BME280;40937;53.594;10.034;2022-10-18T04:35:37;78771.16;;;-147.20;88.46
55038;BME280;40937;53.594;10.034;2022-10-18T04:38:04;78767.13;;;-147.20;87.99
55038;BME280;40937;53.594;10.034;2022-10-18T04:40:30;78779.25;;;-147.20;88.14
55038;BME280;40937;53.594;10.034;2022-10-18T04:42:57;78777.22;;;-147.20;88.30
55038;BME280;40937;53.594;10.034;2022-10-18T04:45:23;78785.28;;;-147.20;88.44
55038;BME280;40937;53.594;10.034;2022-10-18T04:47:50;78785.28;;;-147.20;88.23
55038;BME280;40937;53.594;10.034;2022-10-18T04:50:17;78789.34;;;-147.20;88.09
55038;BME280;40937;53.594;10.034;2022-10-18T04:52:45;78789.34;;;-147.20;88.34
55038;BME280;40937;53.594;10.034;2022-10-18T04:55:11;78791.34;;;-147.20;88.69
55038;BME280;40937;53.594;10.034;2022-10-18T04:57:38;78797.41;;;-147.20;88.85
55038;BME280;40937;53.594;10.034;2022-10-18T05:00:05;78791.34;;;-147.20;88.79
55038;BME280;40937;53.594;10.034;2022-10-18T05:02:32;78791.34;;;-147.20;88.62
55038;BME280;40937;53.594;10.034;2022-10-18T05:04:58;78783.28;;;-147.20;88.38
55038;BME280;40937;53.594;10.034;2022-10-18T05:07:25;78783.28;;;-147.20;88.49
55038;BME280;40937;53.594;10.034;2022-10-18T05:09:53;78777.22;;;-147.20;88.36
55038;BME280;40937;53.594;10.034;2022-10-18T05:12:20;78779.25;;;-147.20;88.40
55038;BME280;40937;53.594;10.034;2022-10-18T05:14:47;78779.25;;;-147.20;88.28
55038;BME280;40937;53.594;10.034;2022-10-18T05:17:13;78775.19;;;-147.20;88.37
55038;BME280;40937;53.594;10.034;2022-10-18T05:19:40;78771.16;;;-147.20;88.31
55038;BME280;40937;53.594;10.034;2022-10-18T05:22:07;78773.19;;;-147.20;88.41
55038;BME280;40937;53.594;10.034;2022-10-18T05:24:33;78771.16;;;-147.20;88.42
55038;BME280;40937;53.594;10.034;2022-10-18T05:27:01;78781.25;;;-147.20;88.39
55038;BME280;40937;53.594;10.034;2022-10-18T05:29:28;78777.22;;;-147.20;88.40
55038;BME280;40937;53.594;10.034;2022-10-18T05:31:55;78779.25;;;-147.20;88.57
55038;BME280;40937;53.594;10.034;2022-10-18T05:34:21;78775.19;;;-147.20;88.52
55038;BME280;40937;53.594;10.034;2022-10-18T05:36:49;78775.19;;;-147.20;88.74
55038;BME280;40937;53.594;10.034;2022-10-18T05:39:15;78785.28;;;-147.20;88.63
55038;BME280;40937;53.594;10.034;2022-10-18T05:41:42;78777.22;;;-147.20;88.27
55038;BME280;40937;53.594;10.034;2022-10-18T05:44:10;78781.25;;;-147.20;87.79
55038;BME280;40937;53.594;10.034;2022-10-18T05:46:36;78785.28;;;-147.20;87.62
55038;BME280;40937;53.594;10.034;2022-10-18T05:49:03;78777.22;;;-147.20;87.51
55038;BME280;40937;53.594;10.034;2022-10-18T05:51:30;78783.28;;;-147.20;87.08
55038;BME280;40937;53.594;10.034;2022-10-18T05:53:56;78783.28;;;-147.20;87.00
55038;BME280;40937;53.594;10.034;2022-10-18T05:56:23;78781.25;;;-147.20;86.77
55038;BME280;40937;53.594;10.034;2022-10-18T05:58:50;78783.28;;;-147.20;86.60
55038;BME280;40937;53.594;10.034;2022-10-18T06:01:18;78781.25;;;-147.20;86.67
55038;BME280;40937;53.594;10.034;2022-10-18T06:03:45;78785.28;;;-147.20;86.25
55038;BME280;40937;53.594;10.034;2022-10-18T06:06:12;78793.38;;;-147.20;86.03
55038;BME280;40937;53.594;10.034;2022-10-18T06:08:40;78799.44;;;-147.20;86.01
55038;BME280;40937;53.594;10.034;2022-10-18T06:11:08;78805.50;;;-147.20;86.04
55038;BME280;40937;53.594;10.034;2022-10-18T06:13:39;78801.44;;;-147.20;86.11
55038;BME280;40937;53.594;10.034;2022-10-18T06:16:06;78807.50;;;-147.20;86.08
55038;BME280;40937;53.594;10.034;2022-10-18T06:18:34;78803.47;;;-147.20;85.87
55038;BME280;40937;53.594;10.034;2022-10-18T06:21:01;78803.47;;;-147.20;85.64
55038;BME280;40937;53.594;10.034;2022-10-18T06:23:28;78803.47;;;-147.20;85.48
55038;BME280;40937;53.594;10.034;2022-10-18T06:25:57;78797.41;;;-147.20;85.45
55038;BME280;40937;53.594;10.034;2022-10-18T06:28:24;78799.44;;;-147.20;85.33
55038;BME280;40937;53.594;10.034;2022-10-18T06:30:51;78795.41;;;-147.20;85.51
55038;BME280;40937;53.594;10.034;2022-10-18T06:33:17;78795.41;;;-147.20;85.49
55038;BME280;40937;53.594;10.034;2022-10-18T06:35:54;78795.41;;;-147.20;85.52
55038;BME280;40937;53.594;10.034;2022-10-18T06:38:21;78797.41;;;-147.20;85.36
55038;BME280;40937;53.594;10.034;2022-10-18T06:40:48;78803.47;;;-147.20;85.32
55038;BME280;40937;53.594;10.034;2022-10-18T06:43:15;78801.44;;;-147.20;85.19
55038;BME280;40937;53.594;10.034;2022-10-18T06:45:41;78797.41;;;-147.20;84.57
55038;BME280;40937;53.594;10.034;2022-10-18T06:48:08;78807.50;;;-147.20;84.66
55038;BME280;40937;53.594;10.034;2022-10-18T06:50:35;78815.59;;;-147.20;84.95
55038;BME280;40937;53.594;10.034;2022-10-18T06:53:03;78817.59;;;-147.20;84.90
55038;BME280;40937;53.594;10.034;2022-10-18T06:55:33;78819.63;;;-147.20;85.00
55038;BME280;40937;53.594;10.034;2022-10-18T06:58:00;78819.63;;;-147.20;84.86
55038;BME280;40937;53.594;10.034;2022-10-18T07:00:26;78821.66;;;-147.20;84.84
55038;BME280;40937;53.594;10.034;2022-10-18T07:02:53;78825.69;;;-147.20;84.73
55038;BME280;40937;53.594;10.034;2022-10-18T07:05:19;78823.66;;;-147.20;84.71
55038;BME280;40937;53.594;10.034;2022-10-18T07:07:46;78825.69;;;-147.20;84.24
55038;BME280;40937;53.594;10.034;2022-10-18T07:10:14;78837.81;;;-147.20;84.39
55038;BME280;40937;53.594;10.034;2022-10-18T07:12:41;78837.81;;;-147.20;84.37
55038;BME280;40937;53.594;10.034;2022-10-18T07:15:08;78837.81;;;-147.20;84.27
55038;BME280;40937;53.594;10.034;2022-10-18T07:17:35;78837.81;;;-147.20;84.30
55038;BME280;40937;53.594;10.034;2022-10-18T07:20:02;78837.81;;;-147.20;84.14
55038;BME280;40937;53.594;10.034;2022-10-18T07:22:28;78837.81;;;-147.20;83.53
55038;BME280;40937;53.594;10.034;2022-10-18T07:24:55;78839.81;;;-147.20;83.09
55038;BME280;40937;53.594;10.034;2022-10-18T07:27:23;78841.84;;;-147.20;83.09
55038;BME280;40937;53.594;10.034;2022-10-18T07:29:50;78837.81;;;-147.20;83.35
55038;BME280;40937;53.594;10.034;2022-10-18T07:32:16;78843.88;;;-147.20;83.13
55038;BME280;40937;53.594;10.034;2022-10-18T07:34:43;78837.81;;;-147.20;83.14
55038;BME280;40937;53.594;10.034;2022-10-18T07:37:09;78835.78;;;-147.20;83.13
55038;BME280;40937;53.594;10.034;2022-10-18T07:39:36;78837.81;;;-147.20;83.16
55038;BME280;40937;53.594;10.034;2022-10-18T07:42:03;78835.78;;;-147.20;83.14
55038;BME280;40937;53.594;10.034;2022-10-18T07:44:31;78837.81;;;-147.20;83.19
55038;BME280;40937;53.594;10.034;2022-10-18T07:46:57;78837.81;;;-147.20;83.16
55038;BME280;40937;53.594;10.034;2022-10-18T07:49:24;78835.78;;;-147.20;82.78
55038;BME280;40937;53.594;10.034;2022-10-18T07:51:51;78843.88;;;-147.20;82.80
55038;BME280;40937;53.594;10.034;2022-10-18T07:54:17;78839.81;;;-147.20;82.88
55038;BME280;40937;53.594;10.034;2022-10-18T07:56:44;78839.81;;;-147.20;82.69
55038;BME280;40937;53.594;10.034;2022-10-18T07:59:12;78835.78;;;-147.20;82.55
55038;BME280;40937;53.594;10.034;2022-10-18T08:01:40;78835.78;;;-147.20;82.43
55038;BME280;40937;53.594;10.034;2022-10-18T08:04:07;78837.81;;;-147.20;82.16
55038;BME280;40937;53.594;10.034;2022-10-18T08:06:33;78843.88;;;-147.20;82.05
55038;BME280;40937;53.594;10.034;2022-10-18T08:09:00;78843.88;;;-147.20;82.12
55038;BME280;40937;53.594;10.034;2022-10-18T08:11:27;78843.88;;;-147.20;82.17
55038;BME280;40937;53.594;10.034;2022-10-18T08:17:12;78829.72;;;-147.20;81.72
55038;BME280;40937;53.594;10.034;2022-10-18T08:20:08;78841.84;;;-147.20;81.44
55038;BME280;40937;53.594;10.034;2022-10-18T08:23:10;78831.75;;;-147.20;81.08
55038;BME280;40937;53.594;10.034;2022-10-18T08:28:51;78831.75;;;-147.20;81.27
55038;BME280;40937;53.594;10.034;2022-10-18T08:35:52;78821.66;;;-147.20;80.82
55038;BME280;40937;53.594;10.034;2022-10-18T08:38:44;78825.69;;;-147.20;80.93
55038;BME280;40937;53.594;10.034;2022-10-18T08:45:24;78835.78;;;-147.20;81.35
55038;BME280;40937;53.594;10.034;2022-10-18T08:48:22;78825.69;;;-147.20;81.31
55038;BME280;40937;53.594;10.034;2022-10-18T08:51:42;78827.72;;;-147.20;81.32
55038;BME280;40937;53.594;10.034;2022-10-18T08:54:54;78835.78;;;-147.20;81.49
55038;BME280;40937;53.594;10.034;2022-10-18T08:57:37;78839.81;;;-147.20;81.58
55038;BME280;40937;53.594;10.034;2022-10-18T09:00:33;78829.72;;;-147.20;81.59
55038;BME280;40937;53.594;10.034;2022-10-18T09:03:25;78845.88;;;-147.20;81.78
55038;BME280;40937;53.594;10.034;2022-10-18T09:06:56;78841.84;;;-147.20;81.53
55038;BME280;40937;53.594;10.034;2022-10-18T09:13:19;78839.81;;;-147.20;80.93
55038;BME280;40937;53.594;10.034;2022-10-18T09:16:00;78831.75;;;-147.20;80.45
55038;BME280;40937;53.594;10.034;2022-10-18T09:18:56;78831.75;;;-147.20;80.37
55038;BME280;40937;53.594;10.034;2022-10-18T09:24:43;78825.69;;;-147.20;78.97
55038;BME280;40937;53.594;10.034;2022-10-18T09:28:00;78829.72;;;-147.20;78.92
55038;BME280;40937;53.594;10.034;2022-10-18T09:30:46;78819.63;;;-147.20;78.63
55038;BME280;40937;53.594;10.034;2022-10-18T09:33:38;78819.63;;;-147.20;78.38
55038;BME280;40937;53.594;10.034;2022-10-18T09:36:29;78819.63;;;-147.20;78.42
55038;BME280;40937;53.594;10.034;2022-10-18T09:42:54;78825.69;;;-147.20;77.83
55038;BME280;40937;53.594;10.034;2022-10-18T09:45:26;78821.66;;;-147.20;77.57
55038;BME280;40937;53.594;10.034;2022-10-18T09:48:04;78823.66;;;-147.20;77.94
55038;BME280;40937;53.594;10.034;2022-10-18T09:53:32;78807.50;;;-147.20;76.94
55038;BME280;40937;53.594;10.034;2022-10-18T09:56:04;78801.44;;;-147.20;76.72
55038;BME280;40937;53.594;10.034;2022-10-18T09:58:41;78795.41;;;-147.20;76.66
55038;BME280;40937;53.594;10.034;2022-10-18T10:01:14;78791.34;;;-147.20;75.67
55038;BME280;40937;53.594;10.034;2022-10-18T10:03:41;78779.25;;;-147.20;75.18
55038;BME280;40937;53.594;10.034;2022-10-18T10:06:15;78777.22;;;-147.20;75.35
55038;BME280;40937;53.594;10.034;2022-10-18T10:08:45;78771.16;;;-147.20;75.55
55038;BME280;40937;53.594;10.034;2022-10-18T10:11:30;78763.09;;;-147.20;74.58
55038;BME280;40937;53.594;10.034;2022-10-18T10:14:06;78755.00;;;-147.20;73.20
55038;BME280;40937;53.594;10.034;2022-10-18T10:16:42;78750.97;;;-147.20;72.74
55038;BME280;40937;53.594;10.034;2022-10-18T10:19:15;78759.03;;;-147.20;72.69
55038;BME280;40937;53.594;10.034;2022-10-18T10:21:42;78757.03;;;-147.20;72.32
55038;BME280;40937;53.594;10.034;2022-10-18T10:24:20;78759.03;;;-147.20;71.59
55038;BME280;40937;53.594;10.034;2022-10-18T10:26:47;78750.97;;;-147.20;71.74
55038;BME280;40937;53.594;10.034;2022-10-18T10:29:48;78759.03;;;-147.20;71.17
55038;BME280;40937;53.594;10.034;2022-10-18T10:32:17;78761.06;;;-147.20;71.49
55038;BME280;40937;53.594;10.034;2022-10-18T10:34:44;78761.06;;;-147.20;71.85
55038;BME280;40937;53.594;10.034;2022-10-18T10:37:23;78755.00;;;-147.20;71.89
55038;BME280;40937;53.594;10.034;2022-10-18T10:40:09;78734.81;;;-147.20;71.56
55038;BME280;40937;53.594;10.034;2022-10-18T10:42:51;78740.88;;;-147.20;70.85
55038;BME280;40937;53.594;10.034;2022-10-18T10:45:22;78728.75;;;-147.20;70.49
55038;BME280;40937;53.594;10.034;2022-10-18T10:47:51;78724.72;;;-147.20;69.05
55038;BME280;40937;53.594;10.034;2022-10-18T10:50:22;78724.72;;;-147.20;69.67
55038;BME280;40937;53.594;10.034;2022-10-18T10:52:49;78720.66;;;-147.20;69.11
55038;BME280;40937;53.594;10.034;2022-10-18T10:55:18;78718.66;;;-147.20;69.09
55038;BME280;40937;53.594;10.034;2022-10-18T10:57:47;78724.72;;;-147.20;69.01
55038;BME280;40937;53.594;10.034;2022-10-18T11:00:38;78718.66;;;-147.20;68.54
55038;BME280;40937;53.594;10.034;2022-10-18T11:03:10;78720.66;;;-147.20;67.87
55038;BME280;40937;53.594;10.034;2022-10-18T11:05:43;78718.66;;;-147.20;66.82
55038;BME280;40937;53.594;10.034;2022-10-18T11:08:12;78724.72;;;-147.20;65.80
55038;BME280;40937;53.594;10.034;2022-10-18T11:10:49;78718.66;;;-147.20;66.17
55038;BME280;40937;53.594;10.034;2022-10-18T11:13:27;78722.69;;;-147.20;66.02
55038;BME280;40937;53.594;10.034;2022-10-18T11:15:59;78692.41;;;-147.20;68.23
55038;BME280;40937;53.594;10.034;2022-10-18T11:18:31;78692.41;;;-147.20;65.73
55038;BME280;40937;53.594;10.034;2022-10-18T11:21:01;78700.47;;;-147.20;65.46
55038;BME280;40937;53.594;10.034;2022-10-18T11:23:33;78718.66;;;-147.20;65.44
55038;BME280;40937;53.594;10.034;2022-10-18T11:29:24;78722.69;;;-147.20;65.75
55038;BME280;40937;53.594;10.034;2022-10-18T11:32:01;78720.66;;;-147.20;65.98
55038;BME280;40937;53.594;10.034;2022-10-18T11:34:46;78716.63;;;-147.20;65.21
55038;BME280;40937;53.594;10.034;2022-10-18T11:37:27;78718.66;;;-147.20;65.58
55038;BME280;40937;53.594;10.034;2022-10-18T11:40:06;78700.47;;;-147.20;65.85
55038;BME280;40937;53.594;10.034;2022-10-18T11:42:45;78688.38;;;-147.20;65.85
55038;BME280;40937;53.594;10.034;2022-10-18T11:45:27;78682.31;;;-147.20;65.78
55038;BME280;40937;53.594;10.034;2022-10-18T11:48:04;78678.25;;;-147.20;65.96
55038;BME280;40937;53.594;10.034;2022-10-18T11:50:38;78666.16;;;-147.20;63.16
55038;BME280;40937;53.594;10.034;2022-10-18T11:53:14;78656.06;;;-147.20;62.19
55038;BME280;40937;53.594;10.034;2022-10-18T11:55:55;78654.03;;;-147.20;61.04
55038;BME280;40937;53.594;10.034;2022-10-18T11:58:40;78654.03;;;-147.20;60.05
55038;BME280;40937;53.594;10.034;2022-10-18T12:01:15;78654.03;;;-147.20;60.54
55038;BME280;40937;53.594;10.034;2022-10-18T12:03:52;78643.94;;;-147.20;61.88
55038;BME280;40937;53.594;10.034;2022-10-18T12:06:24;78643.94;;;-147.20;61.80
55038;BME280;40937;53.594;10.034;2022-10-18T12:08:54;78647.97;;;-147.20;61.69
55038;BME280;40937;53.594;10.034;2022-10-18T12:11:27;78631.81;;;-147.20;60.21
55038;BME280;40937;53.594;10.034;2022-10-18T12:13:58;78637.88;;;-147.20;59.48
55038;BME280;40937;53.594;10.034;2022-10-18T12:16:28;78639.91;;;-147.20;59.17
55038;BME280;40937;53.594;10.034;2022-10-18T12:18:58;78641.91;;;-147.20;58.60
55038;BME280;40937;53.594;10.034;2022-10-18T12:21:28;78645.97;;;-147.20;58.83
55038;BME280;40937;53.594;10.034;2022-10-18T12:23:58;78643.94;;;-147.20;59.21
55038;BME280;40937;53.594;10.034;2022-10-18T12:26:26;78631.81;;;-147.20;59.07
55038;BME280;40937;53.594;10.034;2022-10-18T12:29:05;78637.88;;;-147.20;58.95
55038;BME280;40937;53.594;10.034;2022-10-18T12:31:38;78627.78;;;-147.20;58.80
55038;BME280;40937;53.594;10.034;2022-10-18T12:34:22;78627.78;;;-147.20;58.97
55038;BME280;40937;53.594;10.034;2022-10-18T12:37:13;78621.72;;;-147.20;59.23
55038;BME280;40937;53.594;10.034;2022-10-18T12:39:45;78619.69;;;-147.20;58.64
55038;BME280;40937;53.594;10.034;2022-10-18T12:42:17;78617.69;;;-147.20;58.69
55038;BME280;40937;53.594;10.034;2022-10-18T12:44:45;78617.69;;;-147.20;58.05
55038;BME280;40937;53.594;10.034;2022-10-18T12:47:20;78601.53;;;-147.20;55.81
55038;BME280;40937;53.594;10.034;2022-10-18T12:49:56;78613.66;;;-147.20;55.87
55038;BME280;40937;53.594;10.034;2022-10-18T12:52:25;78599.50;;;-147.20;55.89
55038;BME280;40937;53.594;10.034;2022-10-18T12:55:03;78605.56;;;-147.20;55.79
55038;BME280;40937;53.594;10.034;2022-10-18T12:58:01;78611.63;;;-147.20;56.71
55038;BME280;40937;53.594;10.034;2022-10-18T13:00:52;78597.50;;;-147.20;56.68
55038;BME280;40937;53.594;10.034;2022-10-18T13:09:38;78587.38;;;-147.20;56.08
55038;BME280;40937;53.594;10.034;2022-10-18T13:12:36;78591.44;;;-147.20;56.97
55038;BME280;40937;53.594;10.034;2022-10-18T13:15:34;78591.44;;;-147.20;55.70
55038;BME280;40937;53.594;10.034;2022-10-18T13:18:09;78593.44;;;-147.20;54.61
55038;BME280;40937;53.594;10.034;2022-10-18T13:20:48;78599.50;;;-147.20;55.67
55038;BME280;40937;53.594;10.034;2022-10-18T13:23:31;78607.59;;;-147.20;55.55
55038;BME280;40937;53.594;10.034;2022-10-18T13:26:14;78597.50;;;-147.20;56.54
55038;BME280;40937;53.594;10.034;2022-10-18T13:28:47;78597.50;;;-147.20;56.49
55038;BME280;40937;53.594;10.034;2022-10-18T13:31:18;78605.56;;;-147.20;56.27
55038;BME280;40937;53.594;10.034;2022-10-18T13:33:47;78609.59;;;-147.20;56.86
55038;BME280;40937;53.594;10.034;2022-10-18T13:36:19;78605.56;;;-147.20;56.69
55038;BME280;40937;53.594;10.034;2022-10-18T13:38:59;78609.59;;;-147.20;56.98
55038;BME280;40937;53.594;10.034;2022-10-18T13:41:30;78615.66;;;-147.20;57.36
55038;BME280;40937;53.594;10.034;2022-10-18T13:44:24;78615.66;;;-147.20;58.03
55038;BME280;40937;53.594;10.034;2022-10-18T13:47:31;78615.66;;;-147.20;57.36
55038;BME280;40937;53.594;10.034;2022-10-18T13:50:23;78617.69;;;-147.20;58.19
55038;BME280;40937;53.594;10.034;2022-10-18T13:59:04;78619.69;;;-147.20;56.76
55038;BME280;40937;53.594;10.034;2022-10-18T14:01:42;78613.66;;;-147.20;56.06
55038;BME280;40937;53.594;10.034;2022-10-18T14:07:15;78623.75;;;-147.20;56.32
55038;BME280;40937;53.594;10.034;2022-10-18T14:09:47;78615.66;;;-147.20;56.57
55038;BME280;40937;53.594;10.034;2022-10-18T14:12:22;78617.69;;;-147.20;56.42
55038;BME280;40937;53.594;10.034;2022-10-18T14:14:55;78627.78;;;-147.20;57.10